Nordic Stockholm — 2DKI2 — position and weather

sailwx.info

Track history (hours):
 
Tides and Currents Weather Stations Pressure Air Temp Water Temp Dewpoint Dewpoint Depression Visibility Wind Speed Wind Dir Waves Ship Positions

Nordic Stockholm

Last reported at 2017-Jun-09 20:32 UTC. Time now 2017-Jun-24 20:37 UTC.
Position S 27°40' E 153°51'.
Warning: this ship's position is 15 days out of date.

Length 180 m; draft 10.8 m.

Type: Cargo ship. MMSI: 235079725.

Date/timePositionNaut miles runAvg speedWind from/ knotsBaromVisibWave heightAir tempDewpointWater temp
2017-Jun-09 20:32S 27°40' E 153°51'012.3
2017-Jun-09 20:30S 27°41' E 153°51'612.6
2017-Jun-09 20:00S 27°47' E 153°50'612.5
2017-Jun-09 19:30S 27°53' E 153°50'27911.2
2017-Jun-08 18:38S 32°26' E 152°41'110.1
2017-Jun-08 18:30S 32°27' E 152°41'510.8
2017-Jun-08 18:00S 32°32' E 152°38'611.1
2017-Jun-08 17:30S 32°37' E 152°35'510.5
2017-Jun-08 17:00S 32°42' E 152°33'510.7
2017-Jun-08 16:30S 32°46' E 152°31'510.6
2017-Jun-08 16:00S 32°51' E 152°28'510.7
2017-Jun-08 15:30S 32°56' E 152°26'511.0
2017-Jun-08 15:00S 33°01' E 152°23'511.0
2017-Jun-08 14:30S 33°06' E 152°21'  
2017-May-31 17:16S 07°12' E 112°43'3 7.1
2017-May-31 16:53S 07°11' E 112°41'3 1.4
2017-May-31 14:48S 07°12' E 112°43'0 0.0
2017-May-31 13:49S 07°12' E 112°43'0 0.0
2017-May-31 13:02S 07°12' E 112°43'0 0.0
2017-May-31 12:39S 07°12' E 112°43'0 0.1
2017-May-31 11:01S 07°12' E 112°43'0 0.0
2017-May-31 05:29S 07°12' E 112°43'14 3.9
2017-May-31 02:00S 06°58' E 112°42'14 6.1
2017-May-30 23:45S 07°12' E 112°43'0 0.0
2017-May-30 23:23S 07°12' E 112°43'0 0.0
2017-May-30 22:53S 07°12' E 112°43'  
Track history (hours):
 
Tides and Currents Weather Stations Pressure Air Temp Water Temp Dewpoint Dewpoint Depression Visibility Wind Speed Wind Dir Waves Ship Positions

Nordic Stockholm

Last reported at 2017-Jun-09 20:32 UTC. Time now 2017-Jun-24 20:37 UTC.
Position S 27°40' E 153°51'.
Warning: this ship's position is 15 days out of date.

Length 180 m; draft 10.8 m.

Type: Cargo ship. MMSI: 235079725.

Date/timePositionNaut miles runAvg speedWind from/ knotsBaromVisibWave heightAir tempDewpointWater temp
2017-Jun-09 20:32S 27°40' E 153°51'012.3
2017-Jun-09 20:30S 27°41' E 153°51'612.6
2017-Jun-09 20:00S 27°47' E 153°50'612.5
2017-Jun-09 19:30S 27°53' E 153°50'27911.2
2017-Jun-08 18:38S 32°26' E 152°41'110.1
2017-Jun-08 18:30S 32°27' E 152°41'510.8
2017-Jun-08 18:00S 32°32' E 152°38'611.1
2017-Jun-08 17:30S 32°37' E 152°35'510.5
2017-Jun-08 17:00S 32°42' E 152°33'510.7
2017-Jun-08 16:30S 32°46' E 152°31'510.6
2017-Jun-08 16:00S 32°51' E 152°28'510.7
2017-Jun-08 15:30S 32°56' E 152°26'511.0
2017-Jun-08 15:00S 33°01' E 152°23'511.0
2017-Jun-08 14:30S 33°06' E 152°21'  
2017-May-31 17:16S 07°12' E 112°43'3 7.1
2017-May-31 16:53S 07°11' E 112°41'3 1.4
2017-May-31 14:48S 07°12' E 112°43'0 0.0
2017-May-31 13:49S 07°12' E 112°43'0 0.0
2017-May-31 13:02S 07°12' E 112°43'0 0.0
2017-May-31 12:39S 07°12' E 112°43'0 0.1
2017-May-31 11:01S 07°12' E 112°43'0 0.0
2017-May-31 05:29S 07°12' E 112°43'14 3.9
2017-May-31 02:00S 06°58' E 112°42'14 6.1
2017-May-30 23:45S 07°12' E 112°43'0 0.0
2017-May-30 23:23S 07°12' E 112°43'0 0.0
2017-May-30 22:53S 07°12' E 112°43'  

Dump ship's entire track history